Terminal Aerodrome Forecast
Issued by NWS

Home | Current Version | Previous Version | Graphics & Text | Print | Product List | Glossary On
Versions: 1 2 3 4 5 6 7 8 9 10 11 12 13 14 15 16 17 18 19
000
FTUS43 KIWX 271500 AAA
TAFSBN
TAF AMD
KSBN 271513Z 2715/2812 29006KT 6SM HZ BKN015
     FM271700 25010KT P6SM VCTS SCT025CB BKN035
      TEMPO 2718/2720 4SM -TSRA BKN025CB
     FM272000 29014G22KT P6SM VCSH BKN035
     FM280100 30010KT P6SM SCT008 BKN035
      TEMPO 2804/2808 5SM BR BKN008
     FM280800 31010KT 5SM BR BKN008=

USA.gov is the U.S. government's official web portal to all federal, state and local government web resources and services.